METAR Data
IDs: Format: Raw Decoded Include TAF

Data at: 0853 UTC 26 Jan 2020

KRCX 260835Z AUTO 31005KT 10SM OVC007 M01/M02 A2990 RMK AO2 T10121018
KRCX 260815Z AUTO 29007KT 10SM OVC007 M01/M02 A2990 RMK AO2 T10121020
KRCX 260755Z AUTO 30008KT 10SM OVC007 M01/M02 A2990 RMK AO2 T10101021
KRCX 260735Z AUTO 31007KT 10SM OVC007 M01/M02 A2990 RMK AO2 T10101021
KRCX 260715Z AUTO 30007KT 10SM OVC009 M01/M02 A2990 RMK AO2 T10101021
KRCX 260655Z AUTO 31007KT 10SM OVC009 M01/M02 A2990 RMK AO2 T10101023
KRCX 260635Z AUTO 31008KT 10SM OVC009 M01/M02 A2990 RMK AO2 T10071022
KRCX 260615Z AUTO 29008KT 10SM OVC009 M01/M02 A2990 RMK AO2 T10061022
KRCX 260555Z AUTO 30008KT 10SM OVC011 00/M02 A2990 RMK AO2 T10051021 10002 21005 400221005
KRCX 260535Z AUTO 30008KT 10SM OVC011 00/M02 A2990 RMK AO2 T10031021
KRCX 260515Z AUTO 31007KT 10SM OVC011 00/M02 A2990 RMK AO2 T10021020
KRCX 260455Z AUTO 32004KT 10SM OVC011 00/M02 A2989 RMK AO2 T10011020
KRCX 260435Z AUTO 31008KT 10SM OVC011 00/M02 A2989 RMK AO2 T10011020
KRCX 260415Z AUTO 30008KT 10SM OVC011 00/M02 A2989 RMK AO2 T00001020 PWINO
KRCX 260355Z AUTO 32006KT OVC013 00/M02 A2989 RMK AO2 T00001019 PWINO
KRCX 260335Z AUTO 32006KT OVC013 00/M02 A2989 RMK AO2 T00001018 PWINO
KRCX 260315Z AUTO 32006KT OVC011 00/M02 A2989 RMK AO2 T00001017 PWINO
KRCX 260255Z AUTO 30007KT OVC011 00/M01 A2989 RMK AO2 T00001015 PWINO
KRCX 260235Z AUTO 30008KT OVC011 00/M01 A2989 RMK AO2 T00001015 PWINO
KRCX 260215Z AUTO 30007KT OVC011 00/M01 A2988 RMK AO2 T00001015 PWINO
KRCX 260155Z AUTO 31008KT OVC011 00/M01 A2988 RMK AO2 T00001014 PWINO
KRCX 260135Z AUTO 31007KT OVC011 00/M01 A2988 RMK AO2 T00001014 PWINO
KRCX 260115Z AUTO 30008KT OVC011 00/M01 A2988 RMK AO2 T00001014 PWINO
KRCX 260055Z AUTO 30009KT OVC011 00/M01 A2988 RMK AO2 T00011014 PWINO
KRCX 260035Z AUTO 31007KT OVC013 00/M01 A2988 RMK AO2 T00011013 PWINO
KRCX 260015Z AUTO 31007KT OVC013 00/M01 A2988 RMK AO2 T00001013 PWINO
KRCX 252355Z AUTO 30007KT 00/M01 A2988 RMK AO2 T00021011 10022 20002 PWINO
KRCX 252335Z AUTO 31008KT BKN010 BKN044 OVC050 00/M01 A2988 RMK AO2 T00021010 PWINO
KRCX 252315Z AUTO 32007KT OVC012 00/M01 A2987 RMK AO2 T00021007 PWINO
KRCX 252255Z AUTO 32007KT BKN012 BKN032 OVC040 00/M01 A2987 RMK AO2 T00031010 PWINO
KRCX 252235Z AUTO 32008KT BKN013 OVC032 01/M01 A2987 RMK AO2 T00051013 PWINO
KRCX 252215Z AUTO 31010KT OVC013 01/M01 A2987 RMK AO2 T00061012 PWINO
KRCX 252155Z AUTO 31009KT BKN011 OVC016 01/M01 A2987 RMK AO2 T00091009 PWINO
KRCX 252135Z AUTO 31012KT OVC013 01/M01 A2987 RMK AO2 T00081007 PWINO
KRCX 252115Z AUTO 32011G14KT OVC012 01/00 A2987 RMK AO2 T00101005 PWINO
KRCX 252055Z AUTO 31011KT OVC012 01/00 A2986 RMK AO2 T00141005 PWINO
KRCX 252035Z AUTO 31011KT OVC012 02/M01 A2986 RMK AO2 T00161006 PWINO
KRCX 252015Z AUTO 32012KT OVC014 02/M01 A2986 RMK AO2 T00181008 PWINO
KRCX 251955Z AUTO 32011KT OVC016 02/M01 A2985 RMK AO2 T00201008 PWINO
KRCX 251935Z AUTO 32007KT 10SM OVC016 02/M01 A2985 RMK AO2 T00211009
KRCX 251915Z AUTO 31010KT 10SM OVC016 02/M01 A2986 RMK AO2 T00201010
KRCX 251855Z AUTO 32008KT 10SM OVC018 02/M01 A2986 RMK AO2 T00211010
KRCX 251835Z AUTO 31009KT 10SM OVC018 02/M01 A2987 RMK AO2 T00211011
KRCX 251815Z AUTO 34008KT 10SM BKN018 OVC050 02/M01 A2987 RMK AO2 T00221012
KRCX 251755Z AUTO 33011G15KT 10SM SCT016 BKN060 BKN075 02/M01 A2987 RMK AO2 T00181008 10018 20000
KRCX 251735Z AUTO 34010KT 10SM SCT014 OVC060 02/M01 A2987 RMK AO2 T00151007
KRCX 251715Z AUTO 33010KT 10SM SCT014 SCT045 OVC050 02/00 A2987 RMK AO2 T00161005
KRCX 251655Z AUTO 34011KT 10SM BKN014 OVC050 02/00 A2987 RMK AO2 T00151005
KRCX 251635Z AUTO 34009KT 10SM BKN014 BKN050 OVC060 01/00 A2988 RMK AO2 T00111003
KRCX 251615Z AUTO 34009KT 10SM SCT012 OVC060 01/00 A2988 RMK AO2 T00101001
KRCX 251555Z AUTO 34009KT 10SM SCT010 SCT046 OVC050 01/00 A2987 RMK AO2 T00070000
KRCX 251535Z AUTO 34009KT 7SM SCT010 BKN018 OVC055 01/00 A2987 RMK AO2 T00050002
KRCX 251515Z AUTO 34008KT 3SM -SN SCT010 BKN017 OVC026 01/00 A2987 RMK AO2 T00050002
KRCX 251455Z AUTO 34007KT 7SM RA SCT012 SCT018 OVC050 01/00 A2987 RMK AO2 T00050003
KRCX 251435Z AUTO 34009KT 3SM -SN SCT015 SCT023 OVC050 00/00 A2987 RMK AO2 T00030002
KRCX 251415Z AUTO 35008KT 4SM -SN SCT010 BKN015 OVC032 00/00 A2987 RMK AO2 T00040001
KRCX 251355Z AUTO 34008KT 10SM BKN011 BKN030 OVC048 00/00 A2987 RMK AO2 T00030001
KRCX 251335Z AUTO 35007KT 7SM BKN011 BKN030 OVC060 00/00 A2986 RMK AO2 T00020001
KRCX 251315Z AUTO 35008KT 5SM -SN SCT008 SCT020 OVC060 00/00 A2985 RMK AO2 T00020002
KRCX 251255Z AUTO 35008KT 10SM SCT008 BKN030 OVC060 00/00 A2985 RMK AO2 T00010001
KRCX 251235Z AUTO 35009KT 4SM SN SCT007 BKN012 OVC032 00/00 A2985 RMK AO2 T00010001
KRCX 251215Z AUTO 34008KT 2 1/2SM -SN BKN007 OVC012 00/00 A2985 RMK AO2 T00010001
KRCX 251155Z AUTO 34008KT 2 1/2SM -SN BKN007 OVC012 00/00 A2985 RMK AO2 T00010001 10002 20000
KRCX 251135Z AUTO 32006KT 3SM -SN BKN009 BKN012 OVC031 00/00 A2985 RMK AO2 T00010001
KRCX 251115Z AUTO 34007KT 3SM -SN SCT007 BKN011 OVC031 00/00 A2985 RMK AO2 T00000000
KRCX 251055Z AUTO 33008KT 5SM -SN BKN007 OVC013 00/00 A2985 RMK AO2 T00010001
KRCX 251035Z AUTO 32007KT 5SM -SN SCT007 BKN017 OVC037 00/00 A2985 RMK AO2 T00010001
KRCX 251015Z AUTO 33007KT 4SM -SN SCT007 SCT027 OVC037 00/00 A2984 RMK AO2 T00010001
KRCX 250955Z AUTO 34006KT 10SM -SN BKN007 BKN049 OVC060 00/00 A2984 RMK AO2 T00000000
KRCX 250935Z AUTO 33006KT 3SM -SN BKN007 OVC011 00/00 A2984 RMK AO2 T00000000
KRCX 250915Z AUTO 34007KT 3SM -SN OVC007 00/00 A2985 RMK AO2 T00020002
KRCX 250855Z AUTO 34007KT 7SM OVC007 00/00 A2985 RMK AO2 T00020002
KRCX 250835Z AUTO 34008KT 10SM OVC007 00/00 A2986 RMK AO2 T00020002
KRCX 250815Z AUTO 34008KT 10SM OVC007 00/00 A2986 RMK AO2 T00010001
KRCX 250755Z AUTO 33006KT 7SM OVC007 00/00 A2986 RMK AO2 T00010001
KRCX 250735Z AUTO 33006KT 7SM OVC009 00/00 A2986 RMK AO2 T00010001
KRCX 250715Z AUTO 33006KT 7SM BKN007 OVC011 00/00 A2987 RMK AO2 T00000000
KRCX 250655Z AUTO 33006KT 5SM BR SCT006 BKN011 OVC023 00/00 A2987 RMK AO2 T00000000
KRCX 250635Z AUTO 34006KT 10SM SCT006 BKN025 OVC039 00/00 A2987 RMK AO2 T00000000
KRCX 250615Z AUTO 34006KT 4SM -SN SCT019 BKN039 OVC070 00/00 A2988 RMK AO2 T00000000
KRCX 250555Z AUTO 33007KT 4SM -SN SCT016 BKN024 OVC038 00/00 A2988 RMK AO2 T00000000 10007 20000 400151006
KRCX 250535Z AUTO 33007KT 7SM SCT011 BKN021 OVC026 00/00 A2988 RMK AO2 T00010001
KRCX 250515Z AUTO 34006KT 10SM OVC009 00/00 A2989 RMK AO2 T00010001
KRCX 250455Z AUTO 34005KT 10SM OVC009 00/00 A2989 RMK AO2 T00010001
KRCX 250435Z AUTO 33007KT 10SM BKN009 OVC030 00/00 A2989 RMK AO2 T00010001
KRCX 250415Z AUTO 34007KT 10SM BKN009 OVC041 00/00 A2989 RMK AO2 T00010001
KRCX 250355Z AUTO 33006KT 7SM BKN009 OVC041 00/00 A2990 RMK AO2 T00010001
KRCX 250335Z AUTO 34006KT 10SM BKN011 OVC043 00/00 A2990 RMK AO2 T00020002
KRCX 250315Z AUTO 35007KT 7SM -SN OVC011 00/00 A2990 RMK AO2 T00020002
KRCX 250255Z AUTO 35008KT 10SM OVC011 00/00 A2991 RMK AO2 T00030003
KRCX 250235Z AUTO 36008KT 10SM SCT009 BKN041 OVC048 00/00 A2991 RMK AO2 T00030003
KRCX 250215Z AUTO 36007KT 7SM SCT009 BKN039 OVC048 01/01 A2991 RMK AO2 T00050005
KRCX 250155Z AUTO 36007KT 7SM -SN SCT007 BKN012 OVC042 01/01 A2992 RMK AO2 T00050005
KRCX 250135Z AUTO 35008KT 5SM -SN BKN007 BKN012 OVC038 01/01 A2993 RMK AO2 T00050005
KRCX 250115Z AUTO 35008KT 7SM -SN SCT005 BKN009 OVC075 01/01 A2993 RMK AO2 T00060006
KRCX 250055Z AUTO 35006KT 7SM SCT005 BKN022 OVC085 01/01 A2993 RMK AO2 T00060006
KRCX 250035Z AUTO 35005KT 7SM -SN BKN020 BKN026 OVC085 01/01 A2993 RMK AO2 T00060006
KRCX 250015Z AUTO 35005KT 5SM -SN BKN020 OVC030 01/01 A2993 RMK AO2 T00070007
KRCX 242355Z AUTO 36005KT 4SM -SN SCT020 OVC030 01/01 A2994 RMK AO2 T00080008 10015 20008
KRCX 242335Z AUTO 36004KT 5SM -RA SCT009 BKN022 OVC027 01/01 A2994 RMK AO2 T00100007
KRCX 242315Z AUTO 36004KT 5SM -SN SCT011 OVC018 01/01 A2993 RMK AO2 T00100005
KRCX 242255Z AUTO 36006KT 10SM SCT009 OVC018 01/00 A2993 RMK AO2 T00110004
KRCX 242235Z AUTO 01005KT 10SM SCT018 BKN030 OVC037 01/00 A2994 RMK AO2 T00110003
KRCX 242215Z AUTO 36007KT 10SM SCT015 OVC033 01/00 A2993 RMK AO2 T00110004
KRCX 242155Z AUTO 36005KT 7SM OVC015 01/01 A2994 RMK AO2 T00130005
KRCX 242135Z AUTO 01007KT 10SM OVC013 01/01 A2993 RMK AO2 T00130005
KRCX 242115Z AUTO 01006KT 10SM OVC015 01/01 A2994 RMK AO2 T00130005
KRCX 242055Z AUTO 01007KT 10SM OVC015 01/01 A2994 RMK AO2 T00120005